aviador You're here:

KJES Decoded Metar

in
Report Time2018-07-22 13:18:00
UTC Time2018-07-22 14:16:52
Flight Rules mvfr MVFR
WindCalm
Visibility9999 m
Phenomena:N/A
Clouds:Broken 012 Hf
Expected CloudBase > 2,000 ft AGL from Temp-Dew spread
Ceiling1,200 ft
Temp28°C
Dew Point23°C (74% RH)
Heat Index31.2°C
QNH1010 hPa
Raw Report
METAR KJES 221318Z AUTO 00000KT 10SM BKN012 28/23 A2984 RMK AO2=

Extra information for KJES:More info

Social comments